Terminal Aerodrome Forecast
Issued by NWS Pueblo, CO

Home | Current Version | Previous Version | Text Only | Print | Product List | Glossary On
Versions: 1 2 3 4 5 6 7 8 9 10 11 12 13 14 15 16 17 18 19 20 21 22 23 24 25 26 27 28 29 30 31 32 33 34 35 36 37 38 39
655
FTUS45 KPUB 022324
TAFPUB
TAF
KPUB 022324Z 0300/0324 13005KT P6SM FEW200
     FM030400 33005KT P6SM SCT080 BKN150
     FM031200 36015G25KT P6SM SCT080=

USA.gov is the U.S. government's official web portal to all federal, state and local government web resources and services.